sensor_id;sensor_type;location;lat;lon;timestamp;pressure;altitude;pressure_sealevel;temperature;humidity
5988;BME280;3021;51.000;6.980;2022-11-15T00:00:23;67447.34;;;10.32;100.00
5988;BME280;3021;51.000;6.980;2022-11-15T00:02:48;67462.25;;;10.43;100.00
5988;BME280;3021;51.000;6.980;2022-11-15T00:05:13;67463.97;;;10.45;100.00
5988;BME280;3021;51.000;6.980;2022-11-15T00:07:39;67475.53;;;10.55;100.00
5988;BME280;3021;51.000;6.980;2022-11-15T00:10:05;67472.78;;;10.55;100.00
5988;BME280;3021;51.000;6.980;2022-11-15T00:12:30;67474.97;;;10.54;100.00
5988;BME280;3021;51.000;6.980;2022-11-15T00:14:55;67488.97;;;10.69;100.00
5988;BME280;3021;51.000;6.980;2022-11-15T00:17:21;67481.59;;;10.65;100.00
5988;BME280;3021;51.000;6.980;2022-11-15T00:19:46;67499.22;;;10.76;100.00
5988;BME280;3021;51.000;6.980;2022-11-15T00:22:11;67508.47;;;10.84;100.00
5988;BME280;3021;51.000;6.980;2022-11-15T00:24:37;67511.34;;;10.87;100.00
5988;BME280;3021;51.000;6.980;2022-11-15T00:27:02;67505.88;;;10.87;100.00
5988;BME280;3021;51.000;6.980;2022-11-15T00:29:27;67503.41;;;10.82;100.00
5988;BME280;3021;51.000;6.980;2022-11-15T00:31:53;67507.88;;;10.84;100.00
5988;BME280;3021;51.000;6.980;2022-11-15T00:34:18;67509.31;;;10.90;100.00
5988;BME280;3021;51.000;6.980;2022-11-15T00:36:43;67513.97;;;10.94;100.00
5988;BME280;3021;51.000;6.980;2022-11-15T00:39:09;67517.84;;;10.95;100.00
5988;BME280;3021;51.000;6.980;2022-11-15T00:41:34;67528.84;;;11.05;100.00
5988;BME280;3021;51.000;6.980;2022-11-15T00:43:59;67527.69;;;11.04;100.00
5988;BME280;3021;51.000;6.980;2022-11-15T00:46:25;67530.44;;;11.04;100.00
5988;BME280;3021;51.000;6.980;2022-11-15T00:48:50;67541.56;;;11.16;100.00
5988;BME280;3021;51.000;6.980;2022-11-15T00:51:15;67554.72;;;11.26;100.00
5988;BME280;3021;51.000;6.980;2022-11-15T00:53:41;67559.63;;;11.35;100.00
5988;BME280;3021;51.000;6.980;2022-11-15T00:56:06;67572.22;;;11.44;100.00
5988;BME280;3021;51.000;6.980;2022-11-15T00:58:31;67581.03;;;11.54;100.00
5988;BME280;3021;51.000;6.980;2022-11-15T01:01:05;67590.13;;;11.59;100.00
5988;BME280;3021;51.000;6.980;2022-11-15T01:03:33;67599.41;;;11.68;100.00
5988;BME280;3021;51.000;6.980;2022-11-15T01:05:59;67596.06;;;11.67;100.00
5988;BME280;3021;51.000;6.980;2022-11-15T01:08:25;67593.19;;;11.65;100.00
5988;BME280;3021;51.000;6.980;2022-11-15T01:10:50;67615.59;;;11.82;100.00
5988;BME280;3021;51.000;6.980;2022-11-15T01:13:15;67611.53;;;11.79;100.00
5988;BME280;3021;51.000;6.980;2022-11-15T01:15:41;67615.00;;;11.82;100.00
5988;BME280;3021;51.000;6.980;2022-11-15T01:18:06;67621.34;;;11.87;100.00
5988;BME280;3021;51.000;6.980;2022-11-15T01:20:32;67624.09;;;11.87;100.00
5988;BME280;3021;51.000;6.980;2022-11-15T01:22:57;67624.84;;;11.90;100.00
5988;BME280;3021;51.000;6.980;2022-11-15T01:25:22;67620.78;;;11.87;100.00
5988;BME280;3021;51.000;6.980;2022-11-15T01:27:48;67622.53;;;11.88;100.00
5988;BME280;3021;51.000;6.980;2022-11-15T01:30:13;67619.78;;;11.88;100.00
5988;BME280;3021;51.000;6.980;2022-11-15T01:32:38;67622.97;;;11.86;100.00
5988;BME280;3021;51.000;6.980;2022-11-15T01:35:04;67621.81;;;11.85;100.00
5988;BME280;3021;51.000;6.980;2022-11-15T01:37:29;67622.09;;;11.90;100.00
5988;BME280;3021;51.000;6.980;2022-11-15T01:39:54;67631.66;;;11.94;100.00
5988;BME280;3021;51.000;6.980;2022-11-15T01:42:20;67643.81;;;12.05;100.00
5988;BME280;3021;51.000;6.980;2022-11-15T01:44:51;67642.22;;;12.06;100.00
5988;BME280;3021;51.000;6.980;2022-11-15T01:47:28;67644.53;;;12.08;100.00
5988;BME280;3021;51.000;6.980;2022-11-15T01:50:14;67646.25;;;12.09;100.00
5988;BME280;3021;51.000;6.980;2022-11-15T01:52:40;67643.97;;;12.07;100.00
5988;BME280;3021;51.000;6.980;2022-11-15T01:55:12;67644.69;;;12.10;100.00
5988;BME280;3021;51.000;6.980;2022-11-15T01:57:41;67641.78;;;12.08;100.00
5988;BME280;3021;51.000;6.980;2022-11-15T02:00:08;67648.16;;;12.14;100.00
5988;BME280;3021;51.000;6.980;2022-11-15T02:02:35;67658.44;;;12.20;100.00
5988;BME280;3021;51.000;6.980;2022-11-15T02:05:01;67659.00;;;12.21;100.00
5988;BME280;3021;51.000;6.980;2022-11-15T02:07:28;67664.19;;;12.25;100.00
5988;BME280;3021;51.000;6.980;2022-11-15T02:09:55;67677.50;;;12.37;100.00
5988;BME280;3021;51.000;6.980;2022-11-15T02:12:21;67691.84;;;12.48;100.00
5988;BME280;3021;51.000;6.980;2022-11-15T02:14:50;67680.53;;;12.42;100.00
5988;BME280;3021;51.000;6.980;2022-11-15T02:23:10;67687.78;;;12.44;100.00
5988;BME280;3021;51.000;6.980;2022-11-15T02:41:57;67694.88;;;12.53;100.00
5988;BME280;3021;51.000;6.980;2022-11-15T02:44:41;67702.41;;;12.59;100.00
5988;BME280;3021;51.000;6.980;2022-11-15T02:47:12;67701.84;;;12.59;100.00
5988;BME280;3021;51.000;6.980;2022-11-15T02:49:47;67694.28;;;12.52;100.00
5988;BME280;3021;51.000;6.980;2022-11-15T02:52:15;67688.50;;;12.47;100.00
5988;BME280;3021;51.000;6.980;2022-11-15T02:54:41;67687.94;;;12.47;100.00
5988;BME280;3021;51.000;6.980;2022-11-15T02:57:12;67677.66;;;12.40;100.00
5988;BME280;3021;51.000;6.980;2022-11-15T03:00:01;67695.00;;;12.55;100.00
5988;BME280;3021;51.000;6.980;2022-11-15T03:05:36;67695.59;;;12.56;100.00
5988;BME280;3021;51.000;6.980;2022-11-15T03:08:17;67697.19;;;12.55;100.00
5988;BME280;3021;51.000;6.980;2022-11-15T03:11:09;67700.22;;;12.60;100.00
5988;BME280;3021;51.000;6.980;2022-11-15T03:14:00;67693.84;;;12.54;100.00
5988;BME280;3021;51.000;6.980;2022-11-15T03:16:32;67694.88;;;12.53;100.00
5988;BME280;3021;51.000;6.980;2022-11-15T03:21:50;67705.31;;;12.62;100.00
5988;BME280;3021;51.000;6.980;2022-11-15T03:24:19;67707.59;;;12.64;100.00
5988;BME280;3021;51.000;6.980;2022-11-15T03:26:45;67704.72;;;12.61;100.00
5988;BME280;3021;51.000;6.980;2022-11-15T03:29:19;67705.72;;;12.60;100.00
5988;BME280;3021;51.000;6.980;2022-11-15T03:31:50;67698.78;;;12.54;100.00
5988;BME280;3021;51.000;6.980;2022-11-15T03:34:37;67697.31;;;12.57;100.00
5988;BME280;3021;51.000;6.980;2022-11-15T03:37:05;67711.06;;;12.67;100.00
5988;BME280;3021;51.000;6.980;2022-11-15T03:39:31;67711.78;;;12.70;100.00
5988;BME280;3021;51.000;6.980;2022-11-15T03:42:30;67711.66;;;12.68;100.00
5988;BME280;3021;51.000;6.980;2022-11-15T03:45:21;67716.31;;;12.72;100.00
5988;BME280;3021;51.000;6.980;2022-11-15T03:48:09;67710.50;;;12.67;100.00
5988;BME280;3021;51.000;6.980;2022-11-15T03:50:35;67720.34;;;12.75;100.00
5988;BME280;3021;51.000;6.980;2022-11-15T03:53:01;67732.06;;;12.88;100.00
5988;BME280;3021;51.000;6.980;2022-11-15T03:55:27;67732.06;;;12.88;100.00
5988;BME280;3021;51.000;6.980;2022-11-15T03:57:54;67737.56;;;12.88;100.00
5988;BME280;3021;51.000;6.980;2022-11-15T04:00:22;67735.38;;;12.89;100.00
5988;BME280;3021;51.000;6.980;2022-11-15T04:02:47;67734.25;;;12.88;100.00
5988;BME280;3021;51.000;6.980;2022-11-15T04:05:12;67730.31;;;12.87;100.00
5988;BME280;3021;51.000;6.980;2022-11-15T04:07:38;67730.63;;;12.82;100.00
5988;BME280;3021;51.000;6.980;2022-11-15T04:10:03;67733.09;;;12.87;100.00
5988;BME280;3021;51.000;6.980;2022-11-15T04:12:38;67741.63;;;12.92;100.00
5988;BME280;3021;51.000;6.980;2022-11-15T04:15:19;67744.66;;;12.97;100.00
5988;BME280;3021;51.000;6.980;2022-11-15T04:17:52;67743.63;;;12.99;100.00
5988;BME280;3021;51.000;6.980;2022-11-15T04:20:23;67740.03;;;12.93;100.00
5988;BME280;3021;51.000;6.980;2022-11-15T04:23:15;67746.38;;;12.99;100.00
5988;BME280;3021;51.000;6.980;2022-11-15T04:26:02;67744.22;;;12.99;100.00
5988;BME280;3021;51.000;6.980;2022-11-15T04:28:28;67745.25;;;12.98;100.00
5988;BME280;3021;51.000;6.980;2022-11-15T04:30:54;67738.28;;;12.91;100.00
5988;BME280;3021;51.000;6.980;2022-11-15T04:33:19;67742.50;;;12.98;100.00
5988;BME280;3021;51.000;6.980;2022-11-15T04:35:44;67743.50;;;12.96;100.00
5988;BME280;3021;51.000;6.980;2022-11-15T04:38:30;67739.44;;;12.92;100.00
5988;BME280;3021;51.000;6.980;2022-11-15T04:40:55;67735.97;;;12.89;100.00
5988;BME280;3021;51.000;6.980;2022-11-15T04:43:20;67743.06;;;12.98;100.00
5988;BME280;3021;51.000;6.980;2022-11-15T04:45:46;67752.19;;;13.04;100.00
5988;BME280;3021;51.000;6.980;2022-11-15T04:48:14;67758.97;;;13.07;100.00
5988;BME280;3021;51.000;6.980;2022-11-15T04:50:39;67753.34;;;13.05;100.00
5988;BME280;3021;51.000;6.980;2022-11-15T04:53:04;67751.75;;;13.06;100.00
5988;BME280;3021;51.000;6.980;2022-11-15T04:55:30;67750.00;;;13.04;100.00
5988;BME280;3021;51.000;6.980;2022-11-15T04:57:59;67751.03;;;13.03;100.00
5988;BME280;3021;51.000;6.980;2022-11-15T05:00:26;67756.81;;;13.08;100.00
5988;BME280;3021;51.000;6.980;2022-11-15T05:02:51;67754.63;;;13.08;100.00
5988;BME280;3021;51.000;6.980;2022-11-15T05:05:35;67755.66;;;13.07;100.00
5988;BME280;3021;51.000;6.980;2022-11-15T05:08:01;67754.63;;;13.08;100.00
5988;BME280;3021;51.000;6.980;2022-11-15T05:10:26;67752.91;;;13.07;100.00
5988;BME280;3021;51.000;6.980;2022-11-15T05:12:52;67757.25;;;13.06;100.00
5988;BME280;3021;51.000;6.980;2022-11-15T05:15:17;67740.16;;;12.95;100.00
5988;BME280;3021;51.000;6.980;2022-11-15T05:17:42;67742.78;;;12.93;100.00
5988;BME280;3021;51.000;6.980;2022-11-15T05:20:08;67732.50;;;12.86;100.00
5988;BME280;3021;51.000;6.980;2022-11-15T05:22:33;67733.53;;;12.85;100.00
5988;BME280;3021;51.000;6.980;2022-11-15T05:24:59;67741.03;;;12.91;100.00
5988;BME280;3021;51.000;6.980;2022-11-15T05:27:24;67738.13;;;12.89;100.00
5988;BME280;3021;51.000;6.980;2022-11-15T05:29:49;67729.00;;;12.83;100.00
5988;BME280;3021;51.000;6.980;2022-11-15T05:32:16;67732.50;;;12.86;100.00
5988;BME280;3021;51.000;6.980;2022-11-15T05:34:43;67715.84;;;12.74;100.00
5988;BME280;3021;51.000;6.980;2022-11-15T05:37:08;67711.78;;;12.70;100.00
5988;BME280;3021;51.000;6.980;2022-11-15T05:39:33;67717.44;;;12.73;100.00
5988;BME280;3021;51.000;6.980;2022-11-15T05:42:06;67711.78;;;12.70;100.00
5988;BME280;3021;51.000;6.980;2022-11-15T05:44:33;67723.66;;;12.76;100.00
5988;BME280;3021;51.000;6.980;2022-11-15T05:46:59;67719.31;;;12.77;100.00
5988;BME280;3021;51.000;6.980;2022-11-15T05:49:29;67713.56;;;12.72;100.00
5988;BME280;3021;51.000;6.980;2022-11-15T05:51:56;67725.53;;;12.80;100.00
5988;BME280;3021;51.000;6.980;2022-11-15T05:54:23;67711.22;;;12.70;100.00
5988;BME280;3021;51.000;6.980;2022-11-15T05:56:49;67709.94;;;12.66;100.00
5988;BME280;3021;51.000;6.980;2022-11-15T05:59:15;67686.91;;;12.48;100.00
5988;BME280;3021;51.000;6.980;2022-11-15T06:01:41;67683.88;;;12.43;100.00
5988;BME280;3021;51.000;6.980;2022-11-15T06:04:07;67677.38;;;12.35;100.00
5988;BME280;3021;51.000;6.980;2022-11-15T06:06:32;67660.72;;;12.22;100.00
5988;BME280;3021;51.000;6.980;2022-11-15T06:08:58;67647.44;;;12.10;100.00
5988;BME280;3021;51.000;6.980;2022-11-15T06:11:23;67622.66;;;11.91;100.00
5988;BME280;3021;51.000;6.980;2022-11-15T06:13:48;67622.53;;;11.88;100.00
5988;BME280;3021;51.000;6.980;2022-11-15T06:16:13;67635.84;;;12.00;100.00
5988;BME280;3021;51.000;6.980;2022-11-15T06:18:39;67641.63;;;12.05;100.00
5988;BME280;3021;51.000;6.980;2022-11-15T06:21:04;67635.84;;;12.00;100.00
5988;BME280;3021;51.000;6.980;2022-11-15T06:23:34;67633.97;;;11.96;100.00
5988;BME280;3021;51.000;6.980;2022-11-15T06:26:00;67638.16;;;12.02;100.00
5988;BME280;3021;51.000;6.980;2022-11-15T06:28:30;67625.25;;;11.88;100.00
5988;BME280;3021;51.000;6.980;2022-11-15T06:30:56;67631.22;;;11.96;100.00
5988;BME280;3021;51.000;6.980;2022-11-15T06:33:26;67621.94;;;11.88;100.00
5988;BME280;3021;51.000;6.980;2022-11-15T06:35:52;67627.00;;;11.90;100.00
5988;BME280;3021;51.000;6.980;2022-11-15T06:38:19;67623.69;;;11.89;100.00
5988;BME280;3021;51.000;6.980;2022-11-15T06:40:45;67611.69;;;11.81;100.00
5988;BME280;3021;51.000;6.980;2022-11-15T06:43:10;67623.13;;;11.89;100.00
5988;BME280;3021;51.000;6.980;2022-11-15T06:45:35;67620.06;;;11.84;100.00
5988;BME280;3021;51.000;6.980;2022-11-15T06:48:01;67613.84;;;11.81;100.00
5988;BME280;3021;51.000;6.980;2022-11-15T06:50:26;67603.44;;;11.71;100.00
5988;BME280;3021;51.000;6.980;2022-11-15T06:52:51;67593.59;;;11.63;100.00
5988;BME280;3021;51.000;6.980;2022-11-15T06:55:17;67608.66;;;11.76;100.00
5988;BME280;3021;51.000;6.980;2022-11-15T06:57:50;67600.53;;;11.69;100.00
5988;BME280;3021;51.000;6.980;2022-11-15T07:00:17;67608.50;;;11.73;100.00
5988;BME280;3021;51.000;6.980;2022-11-15T07:02:43;67603.44;;;11.71;100.00
5988;BME280;3021;51.000;6.980;2022-11-15T07:05:09;67592.59;;;11.64;100.00
5988;BME280;3021;51.000;6.980;2022-11-15T07:07:35;67588.81;;;11.56;100.00
5988;BME280;3021;51.000;6.980;2022-11-15T07:10:00;67601.69;;;11.70;100.00
5988;BME280;3021;51.000;6.980;2022-11-15T07:12:26;67600.53;;;11.69;100.00
5988;BME280;3021;51.000;6.980;2022-11-15T07:14:51;67598.94;;;11.70;100.00
5988;BME280;3021;51.000;6.980;2022-11-15T07:17:16;67606.31;;;11.74;100.00
5988;BME280;3021;51.000;6.980;2022-11-15T07:19:42;67607.91;;;11.73;100.00
5988;BME280;3021;51.000;6.980;2022-11-15T07:22:07;67599.81;;;11.66;100.00
5988;BME280;3021;51.000;6.980;2022-11-15T07:24:32;67607.50;;;11.75;100.00
5988;BME280;3021;51.000;6.980;2022-11-15T07:26:58;67613.25;;;11.80;100.00
5988;BME280;3021;51.000;6.980;2022-11-15T07:29:23;67621.09;;;11.82;100.00
5988;BME280;3021;51.000;6.980;2022-11-15T07:31:49;67612.84;;;11.82;100.00
5988;BME280;3021;51.000;6.980;2022-11-15T07:34:15;67611.69;;;11.81;100.00
5988;BME280;3021;51.000;6.980;2022-11-15T07:36:43;67615.00;;;11.82;100.00
5988;BME280;3021;51.000;6.980;2022-11-15T07:39:09;67621.94;;;11.88;100.00
5988;BME280;3021;51.000;6.980;2022-11-15T07:41:34;67626.00;;;11.91;100.00
5988;BME280;3021;51.000;6.980;2022-11-15T07:44:03;67617.31;;;11.84;100.00
5988;BME280;3021;51.000;6.980;2022-11-15T07:46:29;67627.31;;;11.95;100.00
5988;BME280;3021;51.000;6.980;2022-11-15T07:48:54;67633.97;;;11.96;100.00
5988;BME280;3021;51.000;6.980;2022-11-15T07:51:19;67642.78;;;12.06;100.00
5988;BME280;3021;51.000;6.980;2022-11-15T07:53:45;67686.78;;;12.45;100.00
5988;BME280;3021;51.000;6.980;2022-11-15T07:56:10;67758.00;;;13.09;100.00
5988;BME280;3021;51.000;6.980;2022-11-15T07:58:36;67812.88;;;13.55;100.00
5988;BME280;3021;51.000;6.980;2022-11-15T08:01:06;67803.31;;;13.52;100.00
5988;BME280;3021;51.000;6.980;2022-11-15T08:03:31;67792.16;;;13.39;100.00
5988;BME280;3021;51.000;6.980;2022-11-15T08:05:57;67767.38;;;13.20;100.00
5988;BME280;3021;51.000;6.980;2022-11-15T08:08:22;67748.13;;;13.00;100.00
5988;BME280;3021;51.000;6.980;2022-11-15T08:10:48;67740.03;;;12.93;100.00
5988;BME280;3021;51.000;6.980;2022-11-15T08:13:13;67730.91;;;12.87;100.00
5988;BME280;3021;51.000;6.980;2022-11-15T08:15:39;67729.59;;;12.84;100.00
5988;BME280;3021;51.000;6.980;2022-11-15T08:18:08;67717.03;;;12.75;100.00
5988;BME280;3021;51.000;6.980;2022-11-15T08:20:34;67728.44;;;12.83;100.00
5988;BME280;3021;51.000;6.980;2022-11-15T08:23:02;67735.84;;;12.87;100.00
5988;BME280;3021;51.000;6.980;2022-11-15T08:25:29;67728.59;;;12.85;100.00
5988;BME280;3021;51.000;6.980;2022-11-15T08:27:57;67741.75;;;12.94;100.00
5988;BME280;3021;51.000;6.980;2022-11-15T08:30:23;67746.97;;;12.99;100.00
5988;BME280;3021;51.000;6.980;2022-11-15T08:32:49;67746.38;;;12.99;100.00
5988;BME280;3021;51.000;6.980;2022-11-15T08:35:15;67740.75;;;12.96;100.00
5988;BME280;3021;51.000;6.980;2022-11-15T08:37:41;67752.91;;;13.07;100.00
5988;BME280;3021;51.000;6.980;2022-11-15T08:40:07;67758.09;;;13.11;100.00
5988;BME280;3021;51.000;6.980;2022-11-15T08:42:32;67766.81;;;13.19;100.00
5988;BME280;3021;51.000;6.980;2022-11-15T08:44:58;67784.63;;;13.32;100.00
5988;BME280;3021;51.000;6.980;2022-11-15T08:47:23;67777.22;;;13.28;100.00
5988;BME280;3021;51.000;6.980;2022-11-15T08:49:49;67793.47;;;13.43;100.00
5988;BME280;3021;51.000;6.980;2022-11-15T08:52:14;67794.63;;;13.44;100.00
5988;BME280;3021;51.000;6.980;2022-11-15T08:54:40;67812.56;;;13.60;100.00
5988;BME280;3021;51.000;6.980;2022-11-15T08:57:06;67838.53;;;13.80;100.00
5988;BME280;3021;51.000;6.980;2022-11-15T08:59:31;67864.59;;;14.04;100.00
5988;BME280;3021;51.000;6.980;2022-11-15T09:01:56;67876.91;;;14.17;100.00
5988;BME280;3021;51.000;6.980;2022-11-15T09:04:22;67898.91;;;14.37;100.00
5988;BME280;3021;51.000;6.980;2022-11-15T09:06:47;67935.75;;;14.64;100.00
5988;BME280;3021;51.000;6.980;2022-11-15T09:09:12;67971.84;;;14.99;100.00
5988;BME280;3021;51.000;6.980;2022-11-15T09:11:38;67970.25;;;15.00;100.00
5988;BME280;3021;51.000;6.980;2022-11-15T09:14:03;67970.69;;;14.98;100.00
5988;BME280;3021;51.000;6.980;2022-11-15T09:16:30;67958.50;;;14.87;100.00
5988;BME280;3021;51.000;6.980;2022-11-15T09:18:56;67943.59;;;14.76;100.00
5988;BME280;3021;51.000;6.980;2022-11-15T09:21:21;67960.41;;;14.91;100.00
5988;BME280;3021;51.000;6.980;2022-11-15T09:23:47;67971.28;;;14.98;100.00
5988;BME280;3021;51.000;6.980;2022-11-15T09:26:14;68082.81;;;16.00;100.00
5988;BME280;3021;51.000;6.980;2022-11-15T09:28:40;68255.34;;;17.53;100.00
5988;BME280;3021;51.000;6.980;2022-11-15T09:31:07;68506.03;;;19.75;100.00
5988;BME280;3021;51.000;6.980;2022-11-15T09:33:32;68718.72;;;21.63;100.00
5988;BME280;3021;51.000;6.980;2022-11-15T09:36:05;68889.88;;;23.19;100.00
5988;BME280;3021;51.000;6.980;2022-11-15T09:38:32;68847.72;;;22.79;100.00
5988;BME280;3021;51.000;6.980;2022-11-15T09:41:13;68697.72;;;21.44;100.00
5988;BME280;3021;51.000;6.980;2022-11-15T09:49:37;68557.91;;;20.20;100.00
5988;BME280;3021;51.000;6.980;2022-11-15T09:52:03;68622.56;;;20.78;100.00
5988;BME280;3021;51.000;6.980;2022-11-15T09:54:37;68720.34;;;21.62;100.00
5988;BME280;3021;51.000;6.980;2022-11-15T10:00:25;68429.09;;;19.04;100.00
5988;BME280;3021;51.000;6.980;2022-11-15T10:03:16;68288.47;;;17.82;100.00
5988;BME280;3021;51.000;6.980;2022-11-15T10:05:49;68263.47;;;17.60;100.00
5988;BME280;3021;51.000;6.980;2022-11-15T10:08:31;68416.44;;;18.95;100.00
5988;BME280;3021;51.000;6.980;2022-11-15T10:11:21;68570.09;;;20.31;100.00
5988;BME280;3021;51.000;6.980;2022-11-15T10:13:49;68719.91;;;21.64;100.00
5988;BME280;3021;51.000;6.980;2022-11-15T10:24:42;69022.19;;;24.30;100.00
5988;BME280;3021;51.000;6.980;2022-11-15T10:27:14;69007.72;;;24.20;100.00
5988;BME280;3021;51.000;6.980;2022-11-15T10:29:58;68706.47;;;21.52;100.00
5988;BME280;3021;51.000;6.980;2022-11-15T10:32:24;68562.66;;;20.27;100.00
5988;BME280;3021;51.000;6.980;2022-11-15T10:34:50;68365.81;;;18.51;100.00
5988;BME280;3021;51.000;6.980;2022-11-15T10:37:30;68244.28;;;17.43;100.00
5988;BME280;3021;51.000;6.980;2022-11-15T10:40:28;68181.53;;;16.87;100.00
5988;BME280;3021;51.000;6.980;2022-11-15T10:45:36;68092.56;;;16.06;100.00
5988;BME280;3021;51.000;6.980;2022-11-15T10:50:36;68065.28;;;15.82;100.00
5988;BME280;3021;51.000;6.980;2022-11-15T10:53:02;68057.72;;;15.75;100.00
5988;BME280;3021;51.000;6.980;2022-11-15T10:55:30;68043.22;;;15.62;100.00
5988;BME280;3021;51.000;6.980;2022-11-15T10:58:28;68027.53;;;15.48;100.00
5988;BME280;3021;51.000;6.980;2022-11-15T11:00:55;68012.59;;;15.37;100.00
5988;BME280;3021;51.000;6.980;2022-11-15T11:03:35;68012.59;;;15.37;100.00
5988;BME280;3021;51.000;6.980;2022-11-15T11:08:29;68025.66;;;15.44;100.00
5988;BME280;3021;51.000;6.980;2022-11-15T11:10:55;68007.81;;;15.31;100.00
5988;BME280;3021;51.000;6.980;2022-11-15T11:16:23;67987.50;;;15.13;100.00
5988;BME280;3021;51.000;6.980;2022-11-15T11:24:29;67954.91;;;14.81;100.00
5988;BME280;3021;51.000;6.980;2022-11-15T11:26:59;67958.38;;;14.84;100.00
5988;BME280;3021;51.000;6.980;2022-11-15T11:29:49;67965.34;;;14.91;100.00
5988;BME280;3021;51.000;6.980;2022-11-15T11:32:40;67949.81;;;14.79;100.00
5988;BME280;3021;51.000;6.980;2022-11-15T11:35:32;67938.81;;;14.69;100.00
5988;BME280;3021;51.000;6.980;2022-11-15T11:38:21;67927.34;;;14.62;100.00
5988;BME280;3021;51.000;6.980;2022-11-15T11:46:31;67904.00;;;14.39;100.00
5988;BME280;3021;51.000;6.980;2022-11-15T11:51:41;67930.13;;;14.62;100.00
5988;BME280;3021;51.000;6.980;2022-11-15T11:54:21;67942.84;;;14.73;100.00
5988;BME280;3021;51.000;6.980;2022-11-15T11:56:48;67951.81;;;14.86;100.00
5988;BME280;3021;51.000;6.980;2022-11-15T11:59:23;67963.72;;;14.92;100.00
5988;BME280;3021;51.000;6.980;2022-11-15T12:01:50;67956.91;;;14.88;100.00
5988;BME280;3021;51.000;6.980;2022-11-15T12:04:50;67974.75;;;15.01;100.00
5988;BME280;3021;51.000;6.980;2022-11-15T12:07:23;67978.22;;;15.04;100.00
5988;BME280;3021;51.000;6.980;2022-11-15T12:12:27;67994.75;;;15.24;100.00
5988;BME280;3021;51.000;6.980;2022-11-15T12:15:42;68001.00;;;15.27;100.00
5988;BME280;3021;51.000;6.980;2022-11-15T12:17:42;68017.69;;;15.40;100.00
5988;BME280;3021;51.000;6.980;2022-11-15T12:20:23;68038.56;;;15.58;100.00
5988;BME280;3021;51.000;6.980;2022-11-15T12:22:55;68039.59;;;15.57;100.00
5988;BME280;3021;51.000;6.980;2022-11-15T12:25:32;68024.06;;;15.45;100.00
5988;BME280;3021;51.000;6.980;2022-11-15T12:28:18;68020.72;;;15.45;100.00
5988;BME280;3021;51.000;6.980;2022-11-15T12:30:54;68010.00;;;15.30;100.00
5988;BME280;3021;51.000;6.980;2022-11-15T12:33:43;68002.16;;;15.28;100.00
5988;BME280;3021;51.000;6.980;2022-11-15T12:36:12;68019.41;;;15.41;100.00
5988;BME280;3021;51.000;6.980;2022-11-15T12:41:21;68034.78;;;15.60;100.00
5988;BME280;3021;51.000;6.980;2022-11-15T12:43:48;68051.34;;;15.69;100.00
5988;BME280;3021;51.000;6.980;2022-11-15T12:46:22;68037.25;;;15.54;100.00
5988;BME280;3021;51.000;6.980;2022-11-15T12:48:52;68032.31;;;15.55;100.00
5988;BME280;3021;51.000;6.980;2022-11-15T12:51:20;68036.22;;;15.56;100.00
5988;BME280;3021;51.000;6.980;2022-11-15T12:53:47;68034.63;;;15.57;100.00
5988;BME280;3021;51.000;6.980;2022-11-15T13:01:09;68053.66;;;15.71;100.00
5988;BME280;3021;51.000;6.980;2022-11-15T13:03:35;68035.81;;;15.58;100.00
5988;BME280;3021;51.000;6.980;2022-11-15T13:06:05;68026.97;;;15.48;100.00
5988;BME280;3021;51.000;6.980;2022-11-15T13:08:37;68025.66;;;15.44;100.00
5988;BME280;3021;51.000;6.980;2022-11-15T13:14:39;68024.63;;;15.46;100.00
5988;BME280;3021;51.000;6.980;2022-11-15T13:17:21;68024.06;;;15.45;100.00
5988;BME280;3021;51.000;6.980;2022-11-15T13:22:17;68036.84;;;15.57;100.00
5988;BME280;3021;51.000;6.980;2022-11-15T13:25:01;68034.63;;;15.57;100.00
5988;BME280;3021;51.000;6.980;2022-11-15T13:27:26;68047.84;;;15.66;100.00
5988;BME280;3021;51.000;6.980;2022-11-15T13:29:52;68054.97;;;15.75;100.00
5988;BME280;3021;51.000;6.980;2022-11-15T13:32:18;68034.06;;;15.57;100.00
5988;BME280;3021;51.000;6.980;2022-11-15T13:34:45;68019.56;;;15.44;100.00
5988;BME280;3021;51.000;6.980;2022-11-15T13:39:49;68020.59;;;15.42;100.00
5988;BME280;3021;51.000;6.980;2022-11-15T13:42:16;68041.91;;;15.59;100.00
5988;BME280;3021;51.000;6.980;2022-11-15T13:44:58;68036.97;;;15.59;100.00
5988;BME280;3021;51.000;6.980;2022-11-15T13:47:28;68038.13;;;15.60;100.00
5988;BME280;3021;51.000;6.980;2022-11-15T13:49:57;68035.09;;;15.55;100.00
5988;BME280;3021;51.000;6.980;2022-11-15T13:52:27;68035.53;;;15.53;100.00
5988;BME280;3021;51.000;6.980;2022-11-15T13:55:04;68020.13;;;15.44;100.00
5988;BME280;3021;51.000;6.980;2022-11-15T13:57:45;68001.13;;;15.30;100.00
5988;BME280;3021;51.000;6.980;2022-11-15T14:00:42;68004.91;;;15.28;100.00
5988;BME280;3021;51.000;6.980;2022-11-15T14:08:33;67995.06;;;15.19;100.00
5988;BME280;3021;51.000;6.980;2022-11-15T14:13:37;67999.09;;;15.23;100.00
5988;BME280;3021;51.000;6.980;2022-11-15T14:18:53;67989.53;;;15.19;100.00
5988;BME280;3021;51.000;6.980;2022-11-15T14:21:19;67988.69;;;15.14;100.00
5988;BME280;3021;51.000;6.980;2022-11-15T14:23:45;67988.09;;;15.13;100.00
5988;BME280;3021;51.000;6.980;2022-11-15T14:26:34;67984.19;;;15.12;100.00
5988;BME280;3021;51.000;6.980;2022-11-15T14:29:28;67981.84;;;15.10;100.00
5988;BME280;3021;51.000;6.980;2022-11-15T14:32:27;67980.00;;;15.06;100.00
5988;BME280;3021;51.000;6.980;2022-11-15T14:34:56;67971.28;;;14.98;100.00
5988;BME280;3021;51.000;6.980;2022-11-15T14:39:48;67960.84;;;14.89;100.00
5988;BME280;3021;51.000;6.980;2022-11-15T14:42:13;67953.31;;;14.82;100.00
5988;BME280;3021;51.000;6.980;2022-11-15T14:44:38;67942.84;;;14.73;100.00
5988;BME280;3021;51.000;6.980;2022-11-15T14:47:04;67943.88;;;14.72;100.00
5988;BME280;3021;51.000;6.980;2022-11-15T14:49:29;67940.53;;;14.71;100.00
5988;BME280;3021;51.000;6.980;2022-11-15T14:51:54;67936.63;;;14.70;100.00
5988;BME280;3021;51.000;6.980;2022-11-15T14:54:20;67936.03;;;14.69;100.00
5988;BME280;3021;51.000;6.980;2022-11-15T14:56:45;67940.09;;;14.73;100.00
5988;BME280;3021;51.000;6.980;2022-11-15T14:59:10;67933.75;;;14.67;100.00
5988;BME280;3021;51.000;6.980;2022-11-15T15:01:35;67941.13;;;14.72;100.00
5988;BME280;3021;51.000;6.980;2022-11-15T15:04:01;67920.97;;;14.56;100.00